Terminal Aerodrome Forecast
Issued by NWS

Home | Current Version | Previous Version | Text Only | Print | Product List | Glossary Off
Versions: 1 2 3 4 5 6 7 8 9 10 11 12 13 14 15 16 17 18 19 20 21 22 23 24 25 26 27 28 29 30 31

000
FTUS43 KLOT 201600 AAB
TAFDPA
TAF AMD
KDPA 201605Z 2016/2112 32010G15KT P6SM SCT035
     FM201800 33011G16KT P6SM BKN030
     FM210100 35007KT P6SM BKN035=

USA.gov is the U.S. government's official web portal to all federal, state and local government web resources and services.